Time;durP1;ratioP1;P1;durP2;ratioP2;P2;SDS_P1;SDS_P2;PMS_P1;PMS_P2;Temp;Humidity;BMP_temperature;BMP_pressure;BME280_temperature;BME280_humidity;BME280_pressure;Samples;Min_cycle;Max_cycle;Signal;HPM_P1;HPM_P2
2021/06/17 00:03:50;;;;;;;10.38;9.48;;;23.80;61.30;;;;;;10414328;28;20458;-58
2021/06/17 00:08:50;;;;;;;9.23;8.43;;;23.80;61.30;;;;;;10414330;28;20037;-58
2021/06/17 00:13:52;;;;;;;10.13;9.32;;;23.80;61.90;;;;;;10413720;28;20129;-58
2021/06/17 00:18:52;;;;;;;10.60;9.68;;;23.80;61.30;;;;;;10413954;28;20082;-58
2021/06/17 00:23:54;;;;;;;10.80;9.95;;;23.80;61.30;;;;;;10413323;28;20044;-57
2021/06/17 00:28:54;;;;;;;10.85;9.90;;;23.80;61.30;;;;;;10412809;28;20546;-57
2021/06/17 00:33:55;;;;;;;11.25;10.25;;;23.80;61.40;;;;;;10408905;28;20041;-58
2021/06/17 00:38:56;;;;;;;11.65;10.60;;;23.80;61.30;;;;;;10412325;28;20381;-57
2021/06/17 00:43:56;;;;;;;10.25;9.45;;;23.80;61.30;;;;;;10420065;28;20064;-57
2021/06/17 00:48:58;;;;;;;10.32;9.45;;;23.80;61.30;;;;;;10413150;28;20502;-58
2021/06/17 00:53:59;;;;;;;12.25;11.15;;;23.80;61.30;;;;;;10413274;28;20025;-57
2021/06/17 00:59:00;;;;;;;11.65;10.65;;;23.80;61.30;;;;;;10413064;28;20017;-57
2021/06/17 01:04:01;;;;;;;12.48;11.32;;;23.80;61.30;;;;;;10412519;28;20033;-58
2021/06/17 01:09:09;;;;;;;12.18;11.18;;;23.80;61.30;;;;;;10412987;28;20104;-58
2021/06/17 01:14:28;;;;;;;11.35;10.43;;;23.80;61.30;;;;;;10411338;28;20053;-57
2021/06/17 01:19:32;;;;;;;11.52;10.50;;;23.80;61.30;;;;;;10418904;28;20485;-58
2021/06/17 01:24:53;;;;;;;10.98;10.07;;;23.80;61.40;;;;;;10420011;28;20436;-58
2021/06/17 01:30:09;;;;;;;11.55;10.55;;;23.80;62.00;;;;;;10420069;28;20029;-58
2021/06/17 01:35:12;;;;;;;12.18;11.18;;;23.80;61.30;;;;;;10411788;28;20033;-58
2021/06/17 01:40:14;;;;;;;12.43;11.32;;;23.80;61.30;;;;;;10418714;28;20067;-57
2021/06/17 01:45:15;;;;;;;12.88;11.68;;;23.80;61.30;;;;;;10422098;28;20045;-58
2021/06/17 01:50:18;;;;;;;11.80;10.80;;;23.80;61.30;;;;;;10419322;28;20053;-56
2021/06/17 01:55:19;;;;;;;13.02;12.02;;;23.80;61.40;;;;;;10418696;28;20095;-58
2021/06/17 02:00:20;;;;;;;12.15;11.15;;;23.70;61.30;;;;;;10417938;28;20045;-58
2021/06/17 02:05:24;;;;;;;12.48;11.45;;;23.80;62.00;;;;;;10417404;28;20053;-58
2021/06/17 02:10:26;;;;;;;12.70;11.50;;;23.70;61.30;;;;;;10418594;28;20029;-58
2021/06/17 02:15:29;;;;;;;12.73;11.73;;;23.80;61.30;;;;;;10416871;28;20037;-57
2021/06/17 02:20:30;;;;;;;12.82;11.68;;;23.80;61.30;;;;;;10417105;28;20049;-58
2021/06/17 02:25:33;;;;;;;12.65;11.65;;;23.70;61.30;;;;;;10417629;28;20037;-58
2021/06/17 02:30:36;;;;;;;12.23;11.23;;;23.80;61.40;;;;;;10404919;28;20029;-58
2021/06/17 02:35:40;;;;;;;12.15;11.13;;;23.70;61.20;;;;;;10416021;28;20060;-58
2021/06/17 02:40:46;;;;;;;13.20;12.10;;;23.70;61.20;;;;;;10417689;28;20104;-58
2021/06/17 02:45:52;;;;;;;13.43;12.38;;;23.80;61.30;;;;;;10423075;28;20055;-58
2021/06/17 02:50:52;;;;;;;14.30;13.07;;;23.70;61.20;;;;;;10416081;28;20034;-58
2021/06/17 02:55:54;;;;;;;13.43;12.40;;;23.70;61.20;;;;;;10416862;28;20029;-57
2021/06/17 03:01:28;;;;;;;13.77;12.40;;;23.70;61.80;;;;;;10416417;28;20087;-58
2021/06/17 03:06:35;;;;;;;13.20;12.10;;;23.70;61.30;;;;;;10401224;28;20112;-58
2021/06/17 03:11:40;;;;;;;13.27;12.23;;;23.70;61.20;;;;;;10413427;28;20268;-57
2021/06/17 03:16:46;;;;;;;13.13;11.93;;;23.70;61.30;;;;;;10396028;28;20498;-58
2021/06/17 03:21:54;;;;;;;13.35;12.10;;;23.70;61.30;;;;;;10415254;28;20030;-58
2021/06/17 03:26:58;;;;;;;13.40;12.30;;;23.70;61.90;;;;;;10398776;28;20027;-58
2021/06/17 03:32:00;;;;;;;14.18;12.82;;;23.70;61.30;;;;;;10414481;28;20031;-58
2021/06/17 03:37:01;;;;;;;14.23;13.00;;;23.70;61.20;;;;;;10430865;28;20061;-58
2021/06/17 03:42:04;;;;;;;13.65;12.55;;;23.70;61.20;;;;;;10421578;28;20029;-58
2021/06/17 03:47:07;;;;;;;13.35;12.27;;;23.70;61.20;;;;;;10413835;28;20091;-58
2021/06/17 03:52:08;;;;;;;14.05;12.90;;;23.70;61.20;;;;;;10415413;28;20034;-58
2021/06/17 03:57:09;;;;;;;14.20;13.05;;;23.70;61.30;;;;;;10415044;28;20056;-58
2021/06/17 04:02:12;;;;;;;13.02;12.02;;;23.70;61.30;;;;;;10414708;28;20037;-58
2021/06/17 04:07:18;;;;;;;14.55;13.25;;;23.70;61.30;;;;;;10413287;28;20029;-58
2021/06/17 04:12:22;;;;;;;13.77;12.57;;;23.70;61.30;;;;;;10400582;28;20045;-56
2021/06/17 04:17:27;;;;;;;13.73;12.63;;;23.60;61.30;;;;;;10413075;28;20027;-58
2021/06/17 04:22:29;;;;;;;13.90;12.68;;;23.70;61.30;;;;;;10412829;28;20033;-57
2021/06/17 04:27:30;;;;;;;13.65;12.45;;;23.60;61.10;;;;;;10412975;28;20034;-56
2021/06/17 04:32:31;;;;;;;14.02;12.82;;;23.70;61.20;;;;;;10407488;28;20030;-58
2021/06/17 04:37:33;;;;;;;14.32;13.18;;;23.60;61.20;;;;;;10405646;28;20068;-58
2021/06/17 04:42:33;;;;;;;14.02;12.93;;;23.60;61.20;;;;;;10419848;28;20027;-58
2021/06/17 04:47:37;;;;;;;13.98;12.77;;;23.70;61.30;;;;;;10413553;28;20107;-58
2021/06/17 04:53:11;;;;;;;13.27;12.27;;;23.70;61.40;;;;;;10418716;28;20107;-58
2021/06/17 04:58:12;;;;;;;12.38;11.43;;;23.60;61.30;;;;;;10419466;28;20433;-58
2021/06/17 05:03:14;;;;;;;14.07;12.88;;;23.70;61.30;;;;;;10421440;28;20037;-56
2021/06/17 05:13:25;;;;;;;14.10;13.00;;;23.70;61.30;;;;;;10421160;28;20389;-58
2021/06/17 05:18:28;;;;;;;14.18;13.00;;;23.60;61.30;;;;;;10421170;28;20045;-58
2021/06/17 05:23:29;;;;;;;13.63;12.48;;;23.70;61.30;;;;;;10420512;28;20029;-58
2021/06/17 05:28:31;;;;;;;13.82;12.57;;;23.70;61.40;;;;;;10419917;28;20489;-58
2021/06/17 05:33:32;;;;;;;13.98;12.77;;;23.70;61.50;;;;;;10419431;28;20041;-58
2021/06/17 05:38:33;;;;;;;14.48;13.27;;;23.70;61.60;;;;;;10420603;28;20397;-58
2021/06/17 05:43:34;;;;;;;15.13;13.82;;;23.70;61.70;;;;;;10427313;28;20083;-58
2021/06/17 05:48:36;;;;;;;13.73;12.55;;;23.60;61.70;;;;;;10419555;28;20561;-58
2021/06/17 05:53:36;;;;;;;14.60;13.40;;;23.70;61.90;;;;;;10419534;28;20041;-58
2021/06/17 05:58:37;;;;;;;15.27;13.88;;;23.70;61.90;;;;;;10419440;28;20076;-58
2021/06/17 06:03:38;;;;;;;13.43;12.18;;;23.70;61.90;;;;;;10418971;28;20041;-58
2021/06/17 06:08:39;;;;;;;14.07;12.75;;;23.70;61.90;;;;;;10419770;28;20040;-57
2021/06/17 06:13:39;;;;;;;14.07;12.88;;;23.70;62.00;;;;;;10418906;28;20112;-58
2021/06/17 06:18:40;;;;;;;13.75;12.55;;;23.70;61.90;;;;;;10418951;28;20025;-58
2021/06/17 06:23:41;;;;;;;14.18;12.88;;;23.70;61.90;;;;;;10418522;28;20120;-57
2021/06/17 06:28:42;;;;;;;13.23;12.13;;;23.70;62.10;;;;;;10417665;28;20025;-56
2021/06/17 06:33:42;;;;;;;13.90;12.80;;;23.70;61.80;;;;;;10418299;28;20036;-58
2021/06/17 06:38:43;;;;;;;12.68;11.57;;;23.70;61.70;;;;;;10418160;28;20041;-58
2021/06/17 06:43:44;;;;;;;13.45;12.25;;;23.70;61.90;;;;;;10421573;28;20057;-58
2021/06/17 06:48:44;;;;;;;12.55;11.45;;;23.70;61.90;;;;;;10417506;28;20108;-58
2021/06/17 06:53:45;;;;;;;12.30;11.23;;;23.70;61.70;;;;;;10417167;28;20055;-57
2021/06/17 06:58:46;;;;;;;13.52;12.32;;;23.70;61.70;;;;;;10417238;28;20061;-58
2021/06/17 07:03:46;;;;;;;14.18;12.77;;;23.80;61.80;;;;;;10416882;28;20124;-58
2021/06/17 07:08:47;;;;;;;13.05;11.88;;;23.70;61.80;;;;;;10417273;28;20053;-58
2021/06/17 07:13:49;;;;;;;12.90;11.90;;;23.80;61.80;;;;;;10415767;28;20042;-57
2021/06/17 07:18:49;;;;;;;12.50;11.50;;;23.80;61.90;;;;;;10416575;28;20026;-57
2021/06/17 07:23:51;;;;;;;12.50;11.43;;;23.80;61.90;;;;;;10416206;28;20061;-58
2021/06/17 07:28:51;;;;;;;12.73;11.68;;;23.80;61.90;;;;;;10401576;28;20037;-58
2021/06/17 07:33:52;;;;;;;11.45;10.50;;;23.80;61.80;;;;;;10407061;28;20048;-58
2021/06/17 07:38:53;;;;;;;11.52;10.38;;;23.80;61.80;;;;;;10416284;28;20091;-58
2021/06/17 07:43:54;;;;;;;10.45;9.55;;;23.80;61.90;;;;;;10422543;28;20081;-58
2021/06/17 07:48:56;;;;;;;11.20;10.30;;;23.80;61.90;;;;;;10415453;28;20045;-58
2021/06/17 07:53:59;;;;;;;11.20;10.20;;;23.90;61.90;;;;;;10415133;28;20068;-58
2021/06/17 07:59:00;;;;;;;11.45;10.43;;;23.90;61.90;;;;;;10415122;28;20060;-58
2021/06/17 08:04:06;;;;;;;10.93;9.93;;;23.90;61.90;;;;;;10415038;28;20064;-57
2021/06/17 08:09:07;;;;;;;9.73;8.82;;;23.90;61.90;;;;;;10414711;28;20123;-57
2021/06/17 08:14:08;;;;;;;10.02;9.15;;;23.90;61.80;;;;;;10429693;28;20053;-56
2021/06/17 08:19:08;;;;;;;11.10;9.82;;;23.90;61.80;;;;;;10414378;28;20034;-58
2021/06/17 08:24:10;;;;;;;10.40;9.50;;;23.90;61.80;;;;;;10413770;28;20105;-56
2021/06/17 08:29:11;;;;;;;9.65;8.75;;;24.00;61.80;;;;;;10414279;28;20088;-58
2021/06/17 08:34:12;;;;;;;9.82;9.02;;;24.00;61.80;;;;;;10400665;28;20126;-58
2021/06/17 08:39:12;;;;;;;10.70;9.75;;;24.00;61.80;;;;;;10414112;28;20036;-58
2021/06/17 08:44:13;;;;;;;9.13;8.43;;;24.00;61.80;;;;;;10420792;28;20084;-58
2021/06/17 08:49:15;;;;;;;9.32;8.52;;;24.00;61.80;;;;;;10412961;28;20054;-58
2021/06/17 08:54:21;;;;;;;9.95;9.05;;;24.00;61.70;;;;;;10413808;28;20029;-58
2021/06/17 08:59:32;;;;;;;10.00;9.10;;;24.00;61.70;;;;;;10413580;28;20034;-58
2021/06/17 09:04:33;;;;;;;9.45;8.65;;;24.10;61.70;;;;;;10401190;28;20034;-58
2021/06/17 09:09:47;;;;;;;9.38;8.57;;;24.10;61.70;;;;;;10413367;28;20485;-58
2021/06/17 09:14:54;;;;;;;10.07;9.05;;;24.10;61.70;;;;;;10413298;28;20493;-58
2021/06/17 09:19:54;;;;;;;9.52;8.55;;;24.00;61.70;;;;;;10413219;28;20348;-57
2021/06/17 09:24:57;;;;;;;9.93;9.02;;;24.10;61.70;;;;;;10413064;28;20053;-57
2021/06/17 09:30:17;;;;;;;9.82;9.02;;;24.10;61.70;;;;;;10412950;28;20036;-58
2021/06/17 09:35:25;;;;;;;9.10;8.20;;;24.10;61.70;;;;;;10399703;28;20092;-58
2021/06/17 09:40:31;;;;;;;9.52;8.70;;;24.10;61.70;;;;;;10419508;28;20041;-58
2021/06/17 09:45:32;;;;;;;8.82;7.97;;;24.10;61.70;;;;;;10427239;28;20041;-58
2021/06/17 09:50:32;;;;;;;8.98;8.18;;;24.10;61.70;;;;;;10419769;28;20441;-56
2021/06/17 09:55:43;;;;;;;9.45;8.65;;;24.20;61.80;;;;;;10419890;28;20037;-57
2021/06/17 10:00:55;;;;;;;8.77;8.02;;;24.20;61.70;;;;;;10419235;28;20037;-58
2021/06/17 10:05:58;;;;;;;8.95;8.05;;;24.20;61.80;;;;;;10419463;28;20025;-58
2021/06/17 10:10:59;;;;;;;9.23;8.50;;;24.20;61.80;;;;;;10417860;28;20382;-58
2021/06/17 10:16:00;;;;;;;9.27;8.43;;;24.20;61.80;;;;;;10404910;28;20040;-58
2021/06/17 10:21:00;;;;;;;9.10;8.30;;;24.20;61.80;;;;;;10417584;28;20068;-58
2021/06/17 10:26:07;;;;;;;7.90;7.20;;;24.20;61.80;;;;;;10418883;28;20511;-57
2021/06/17 10:31:09;;;;;;;8.45;7.75;;;24.30;61.90;;;;;;10418061;28;20037;-58
2021/06/17 10:36:22;;;;;;;8.15;7.35;;;24.30;61.90;;;;;;10405134;28;20363;-58
2021/06/17 10:41:45;;;;;;;8.93;8.02;;;24.30;61.80;;;;;;10422875;28;20047;-57
2021/06/17 10:46:46;;;;;;;9.02;8.23;;;24.30;61.80;;;;;;10405536;28;20076;-58
2021/06/17 10:52:31;;;;;;;8.95;8.15;;;24.30;61.90;;;;;;10417219;28;20120;-56
2021/06/17 11:02:44;;;;;;;8.07;7.38;;;24.40;62.00;;;;;;10416956;28;20063;-58
2021/06/17 11:08:16;;;;;;;8.20;7.35;;;24.40;62.00;;;;;;10417182;28;20057;-58
2021/06/17 11:13:40;;;;;;;8.40;7.68;;;24.40;62.10;;;;;;10416536;28;20085;-58
2021/06/17 11:24:21;;;;;;;;;;;24.40;62.10;;;;;;10416791;28;20770;-58
2021/06/17 11:29:48;;;;;;;8.30;7.50;;;24.50;62.10;;;;;;10416269;28;19913;-58
2021/06/17 11:34:50;;;;;;;7.95;7.25;;;24.50;62.10;;;;;;10415636;28;20063;-58
2021/06/17 11:39:51;;;;;;;8.85;8.00;;;24.50;62.00;;;;;;10415965;28;20375;-58
2021/06/17 11:45:09;;;;;;;7.47;6.88;;;24.50;61.90;;;;;;10421633;28;20029;-58
2021/06/17 11:50:11;;;;;;;8.05;7.25;;;24.50;61.90;;;;;;10398644;28;20157;-58
2021/06/17 11:55:12;;;;;;;7.45;6.75;;;24.60;62.60;;;;;;10415041;28;20116;-58
2021/06/17 12:00:29;;;;;;;7.30;6.70;;;24.60;62.00;;;;;;10414458;28;20021;-58
2021/06/17 12:05:30;;;;;;;7.78;7.18;;;24.60;61.90;;;;;;10415019;28;20112;-58
2021/06/17 12:10:35;;;;;;;7.70;7.00;;;24.60;61.90;;;;;;10414654;28;20498;-58
2021/06/17 12:15:42;;;;;;;7.63;6.97;;;24.60;61.80;;;;;;10414864;28;20048;-58
2021/06/17 12:20:46;;;;;;;7.32;6.63;;;24.70;61.80;;;;;;10415011;28;20032;-56
2021/06/17 12:25:58;;;;;;;8.30;7.50;;;24.70;61.90;;;;;;10413057;28;20038;-58
2021/06/17 12:30:59;;;;;;;7.13;6.53;;;24.70;61.70;;;;;;10412763;28;20355;-58
2021/06/17 12:36:12;;;;;;;7.13;6.53;;;24.70;61.70;;;;;;10406813;28;20037;-58
2021/06/17 12:41:21;;;;;;;7.57;6.88;;;24.70;61.70;;;;;;10417521;28;20021;-58
2021/06/17 12:46:32;;;;;;;8.18;7.40;;;24.70;61.60;;;;;;10413363;28;20076;-58
2021/06/17 12:52:02;;;;;;;6.47;5.85;;;24.80;61.60;;;;;;10401291;28;20038;-58
2021/06/17 12:57:11;;;;;;;7.25;6.65;;;24.80;61.60;;;;;;10405147;28;20036;-58
2021/06/17 13:02:37;;;;;;;;;;;24.80;61.50;;;;;;10414716;28;20029;-58
2021/06/17 13:07:58;;;;;;;6.38;5.75;;;24.80;61.40;;;;;;10410226;28;19913;-58
2021/06/17 13:13:28;;;;;;;7.15;6.53;;;24.80;61.40;;;;;;10415928;28;20088;-58
2021/06/17 13:18:36;;;;;;;7.15;6.45;;;24.80;61.40;;;;;;10417029;28;20474;-58
2021/06/17 13:23:38;;;;;;;6.43;5.93;;;24.90;61.40;;;;;;10421096;28;20018;-58
2021/06/17 13:28:54;;;;;;;7.10;6.15;;;24.90;61.30;;;;;;10420424;28;20030;-58
2021/06/17 13:33:57;;;;;;;6.38;5.78;;;24.90;61.20;;;;;;10409054;28;20529;-57
2021/06/17 13:38:58;;;;;;;6.03;5.43;;;24.90;61.30;;;;;;10420296;28;20037;-57
2021/06/17 13:43:59;;;;;;;6.20;5.40;;;24.90;61.20;;;;;;10426898;28;20112;-58
2021/06/17 13:49:00;;;;;;;6.60;5.93;;;25.00;61.20;;;;;;10419784;28;20153;-58
2021/06/17 13:54:00;;;;;;;6.35;5.75;;;24.90;61.20;;;;;;10419894;28;20091;-58
2021/06/17 13:59:03;;;;;;;5.68;5.18;;;24.90;61.20;;;;;;10418406;28;20512;-58
2021/06/17 14:04:04;;;;;;;6.88;6.28;;;24.90;61.30;;;;;;10419517;28;20033;-58
2021/06/17 14:09:05;;;;;;;5.80;5.18;;;24.90;61.30;;;;;;10419766;28;20120;-59
2021/06/17 14:14:06;;;;;;;6.18;5.57;;;25.00;61.30;;;;;;10417682;28;20116;-57
2021/06/17 14:19:07;;;;;;;6.97;5.22;;;25.00;61.30;;;;;;10418889;28;20030;-57
2021/06/17 14:24:08;;;;;;;7.28;5.68;;;24.90;61.30;;;;;;10418422;28;20025;-58
2021/06/17 14:29:09;;;;;;;6.63;5.97;;;24.90;61.30;;;;;;10418393;28;20120;-58
2021/06/17 14:34:10;;;;;;;5.75;5.00;;;25.00;61.40;;;;;;10418496;28;20060;-58
2021/06/17 14:39:11;;;;;;;5.80;5.13;;;25.00;61.40;;;;;;10418250;28;20041;-57
2021/06/17 14:44:16;;;;;;;5.72;5.22;;;25.00;61.40;;;;;;10425113;28;20025;-58
2021/06/17 14:49:16;;;;;;;6.03;5.18;;;25.00;61.40;;;;;;10417470;28;20075;-58
2021/06/17 14:54:20;;;;;;;5.65;4.82;;;25.00;61.40;;;;;;10416698;28;20132;-58
2021/06/17 14:59:22;;;;;;;6.15;5.20;;;25.00;61.40;;;;;;10417431;28;20087;-58
2021/06/17 15:04:22;;;;;;;5.88;5.25;;;25.00;61.40;;;;;;10417261;28;20371;-58
2021/06/17 15:09:23;;;;;;;6.07;5.47;;;25.00;61.40;;;;;;10416446;28;20033;-58
2021/06/17 15:14:24;;;;;;;5.68;4.75;;;25.00;61.40;;;;;;10416812;28;20025;-59
2021/06/17 15:19:25;;;;;;;5.18;4.63;;;24.90;61.40;;;;;;10416149;28;20557;-58
2021/06/17 15:24:26;;;;;;;5.45;4.95;;;24.90;61.40;;;;;;10416917;28;20069;-58
2021/06/17 15:29:27;;;;;;;5.20;4.70;;;24.90;61.50;;;;;;10415945;28;20033;-58
2021/06/17 15:34:28;;;;;;;6.50;4.25;;;25.00;61.50;;;;;;10402136;28;20100;-58
2021/06/17 15:39:29;;;;;;;5.25;4.75;;;25.00;61.60;;;;;;10415647;28;20041;-58
2021/06/17 15:44:29;;;;;;;5.60;5.10;;;25.00;61.50;;;;;;10421218;28;20385;-58
2021/06/17 15:49:30;;;;;;;7.40;5.40;;;25.00;61.50;;;;;;10415091;28;20398;-58
2021/06/17 15:54:31;;;;;;;5.45;4.95;;;25.00;61.60;;;;;;10415708;28;20068;-58
2021/06/17 15:59:32;;;;;;;5.22;4.72;;;25.00;61.60;;;;;;10414741;28;20052;-58
2021/06/17 16:04:33;;;;;;;4.95;4.55;;;25.00;61.60;;;;;;10415027;28;20441;-58
2021/06/17 16:09:33;;;;;;;5.97;5.05;;;25.00;61.60;;;;;;10414955;28;20056;-58
2021/06/17 16:14:34;;;;;;;4.80;4.40;;;25.00;61.60;;;;;;10414606;28;20071;-58
2021/06/17 16:19:36;;;;;;;5.78;4.72;;;25.00;61.60;;;;;;10414280;28;20420;-58
2021/06/17 16:24:38;;;;;;;5.80;5.22;;;25.00;61.60;;;;;;10414561;28;20143;-58
2021/06/17 16:29:41;;;;;;;5.53;5.03;;;25.00;61.60;;;;;;10413980;28;20065;-58
2021/06/17 16:34:42;;;;;;;5.47;4.60;;;25.00;61.60;;;;;;10414023;28;20088;-57
2021/06/17 16:39:43;;;;;;;5.68;5.18;;;25.00;62.20;;;;;;10413878;28;20609;-58
2021/06/17 16:44:44;;;;;;;5.53;5.03;;;25.00;61.60;;;;;;10421605;28;20478;-58
2021/06/17 16:49:45;;;;;;;5.85;5.35;;;25.00;61.60;;;;;;10421939;28;20079;-58
2021/06/17 16:54:46;;;;;;;5.20;4.70;;;25.00;61.60;;;;;;10422086;28;20029;-58
2021/06/17 16:59:47;;;;;;;5.30;4.80;;;25.00;61.60;;;;;;10420681;28;20029;-57
2021/06/17 17:04:48;;;;;;;5.82;4.47;;;25.00;61.60;;;;;;10420848;28;20026;-58
2021/06/17 17:09:50;;;;;;;5.50;5.00;;;25.00;61.60;;;;;;10421747;28;20150;-58
2021/06/17 17:14:51;;;;;;;6.07;5.28;;;25.10;61.60;;;;;;10421621;28;20060;-58
2021/06/17 17:19:51;;;;;;;5.18;4.68;;;25.00;61.60;;;;;;10421058;28;20033;-58
2021/06/17 17:24:52;;;;;;;5.72;5.00;;;25.00;61.60;;;;;;10421310;28;20033;-58
2021/06/17 17:29:53;;;;;;;5.57;5.07;;;25.00;61.60;;;;;;10420733;28;20037;-58
2021/06/17 17:34:54;;;;;;;6.60;5.03;;;25.00;61.60;;;;;;10406271;28;20076;-58
2021/06/17 17:39:54;;;;;;;5.32;4.82;;;25.00;61.60;;;;;;10419063;28;20108;-58
2021/06/17 17:44:56;;;;;;;5.38;4.88;;;25.10;61.60;;;;;;10427756;28;20072;-58
2021/06/17 17:49:59;;;;;;;5.30;4.80;;;25.00;61.60;;;;;;10419002;28;20498;-58
2021/06/17 17:55:00;;;;;;;5.60;5.10;;;25.10;61.60;;;;;;10419928;28;20095;-58
2021/06/17 18:00:01;;;;;;;6.38;5.78;;;25.10;61.70;;;;;;10418662;28;20091;-58
2021/06/17 18:05:02;;;;;;;5.00;4.53;;;25.10;61.80;;;;;;10420030;28;20037;-58
2021/06/17 18:10:07;;;;;;;5.43;4.93;;;25.10;61.80;;;;;;10419123;28;20031;-58
2021/06/17 18:15:15;;;;;;;5.25;4.75;;;25.10;61.80;;;;;;10419123;28;20034;-58
2021/06/17 18:20:16;;;;;;;5.43;4.93;;;25.10;61.90;;;;;;10418976;28;20544;-58
2021/06/17 18:25:16;;;;;;;6.22;5.30;;;25.10;61.90;;;;;;10418564;28;20179;-59
2021/06/17 18:30:18;;;;;;;6.15;5.00;;;25.10;61.90;;;;;;10418405;28;20025;-58
2021/06/17 18:35:19;;;;;;;6.53;5.00;;;25.10;61.90;;;;;;10418102;28;20040;-58
2021/06/17 18:40:20;;;;;;;5.22;4.65;;;25.10;61.90;;;;;;10417751;28;20030;-59
2021/06/17 18:45:21;;;;;;;4.95;4.50;;;25.10;61.90;;;;;;10425774;28;20037;-58
2021/06/17 18:50:21;;;;;;;5.15;4.63;;;25.10;61.90;;;;;;10417555;28;20501;-59
2021/06/17 18:55:22;;;;;;;6.07;5.47;;;25.10;61.90;;;;;;10418103;28;20078;-59
2021/06/17 19:00:23;;;;;;;5.95;5.35;;;25.10;61.90;;;;;;10411515;28;20052;-58
2021/06/17 19:05:24;;;;;;;5.18;4.68;;;25.10;61.90;;;;;;10415911;28;20103;-58
2021/06/17 19:10:25;;;;;;;5.28;4.78;;;25.10;61.90;;;;;;10416643;28;20088;-59
2021/06/17 19:15:27;;;;;;;5.50;4.55;;;25.10;61.90;;;;;;10417144;28;20021;-57
2021/06/17 19:20:28;;;;;;;5.63;5.03;;;25.10;62.00;;;;;;10416683;28;20140;-58
2021/06/17 19:25:29;;;;;;;5.30;4.78;;;25.20;62.00;;;;;;10416367;28;20065;-56
2021/06/17 19:30:29;;;;;;;6.68;5.05;;;25.10;61.90;;;;;;10416170;28;20457;-57
2021/06/17 19:35:30;;;;;;;6.50;5.10;;;25.20;61.90;;;;;;10402567;28;20037;-58
2021/06/17 19:40:32;;;;;;;5.50;5.00;;;25.10;61.90;;;;;;10416104;28;20033;-58
2021/06/17 19:45:33;;;;;;;5.65;5.07;;;25.20;62.00;;;;;;10421634;28;20499;-58
2021/06/17 19:50:34;;;;;;;5.90;4.90;;;25.10;61.90;;;;;;10414980;28;20050;-58
2021/06/17 19:55:38;;;;;;;5.28;4.80;;;25.20;62.00;;;;;;10415298;28;20060;-58
2021/06/17 20:00:38;;;;;;;5.45;4.55;;;25.10;61.90;;;;;;10414757;28;20104;-58
2021/06/17 20:05:42;;;;;;;5.55;4.88;;;25.20;61.90;;;;;;10430265;28;20124;-58
2021/06/17 20:10:44;;;;;;;6.00;5.35;;;25.10;61.90;;;;;;10414659;28;20034;-56
2021/06/17 20:15:45;;;;;;;5.70;5.20;;;25.10;61.90;;;;;;10413376;28;20060;-58
2021/06/17 20:20:46;;;;;;;5.47;4.90;;;25.20;62.00;;;;;;10403811;28;20057;-58
2021/06/17 20:25:47;;;;;;;5.57;5.07;;;25.20;62.00;;;;;;10414370;28;20104;-58
2021/06/17 20:30:48;;;;;;;5.95;5.45;;;25.10;61.90;;;;;;10414321;28;20116;-58
2021/06/17 20:35:48;;;;;;;5.82;5.32;;;25.10;61.90;;;;;;10400635;28;20124;-58
2021/06/17 20:40:49;;;;;;;6.95;6.25;;;25.20;62.10;;;;;;10413996;28;20097;-57
2021/06/17 20:45:52;;;;;;;6.93;5.35;;;25.10;62.10;;;;;;10420737;28;20125;-58
2021/06/17 20:50:52;;;;;;;5.60;4.88;;;25.20;62.20;;;;;;10413291;28;20073;-58
2021/06/17 20:55:53;;;;;;;6.45;5.80;;;25.10;62.40;;;;;;10413193;28;20026;-58
2021/06/17 21:00:54;;;;;;;6.32;5.55;;;25.20;62.20;;;;;;10413415;28;20109;-58
2021/06/17 21:05:54;;;;;;;6.72;5.60;;;25.20;62.10;;;;;;10412706;28;20064;-58
2021/06/17 21:10:57;;;;;;;6.20;5.60;;;25.20;62.20;;;;;;10412749;28;20486;-58
2021/06/17 21:15:57;;;;;;;5.90;5.40;;;25.20;62.20;;;;;;10412829;28;20026;-58
2021/06/17 21:20:59;;;;;;;5.80;5.28;;;25.10;62.30;;;;;;10412569;28;20030;-58
2021/06/17 21:26:00;;;;;;;5.65;5.07;;;25.10;62.60;;;;;;10412806;28;20167;-58
2021/06/17 21:31:01;;;;;;;6.05;5.55;;;25.10;62.50;;;;;;10412199;28;20076;-58
2021/06/17 21:36:01;;;;;;;5.47;4.95;;;25.10;62.50;;;;;;10405406;28;20037;-58
2021/06/17 21:41:02;;;;;;;5.78;5.28;;;25.10;62.30;;;;;;10421998;28;20444;-56
2021/06/17 21:46:03;;;;;;;6.63;5.95;;;25.10;62.10;;;;;;10425015;28;20119;-58
2021/06/17 21:51:04;;;;;;;6.13;4.97;;;25.10;62.10;;;;;;10419994;28;20033;-57
2021/06/17 21:56:05;;;;;;;6.03;5.50;;;25.20;62.30;;;;;;10419509;28;20040;-58
2021/06/17 22:01:06;;;;;;;5.13;4.63;;;25.10;62.20;;;;;;10419097;28;20049;-57
2021/06/17 22:06:07;;;;;;;5.68;5.18;;;25.10;62.30;;;;;;10417947;28;20495;-58
2021/06/17 22:11:07;;;;;;;8.00;5.60;;;25.10;62.30;;;;;;10418655;28;20397;-58
2021/06/17 22:16:08;;;;;;;5.95;4.85;;;25.10;62.30;;;;;;10418989;28;20534;-58
2021/06/17 22:21:09;;;;;;;6.65;5.82;;;25.20;62.40;;;;;;10418876;28;20104;-58
2021/06/17 22:26:10;;;;;;;5.78;5.18;;;25.10;62.20;;;;;;10418471;28;20041;-59
2021/06/17 22:31:10;;;;;;;6.40;5.18;;;25.10;62.30;;;;;;10417073;28;20620;-58
2021/06/17 22:36:11;;;;;;;5.85;5.35;;;25.10;62.30;;;;;;10403471;28;20068;-58
2021/06/17 22:41:12;;;;;;;5.53;5.03;;;25.10;62.30;;;;;;10420987;28;20100;-58
2021/06/17 22:46:12;;;;;;;5.60;5.10;;;25.10;62.30;;;;;;10421858;28;20060;-57
2021/06/17 22:51:13;;;;;;;6.35;5.78;;;25.10;62.20;;;;;;10417310;28;20061;-58
2021/06/17 22:56:14;;;;;;;6.25;5.68;;;25.10;62.30;;;;;;10417300;28;20041;-58
2021/06/17 23:01:15;;;;;;;5.90;5.40;;;25.10;62.30;;;;;;10416833;28;20474;-57
2021/06/17 23:06:18;;;;;;;6.25;5.65;;;25.10;62.30;;;;;;10417030;28;20413;-58
2021/06/17 23:11:19;;;;;;;5.88;5.28;;;25.10;62.30;;;;;;10417062;28;20034;-57
2021/06/17 23:16:19;;;;;;;6.03;5.18;;;25.10;62.30;;;;;;10416486;28;20113;-58
2021/06/17 23:21:20;;;;;;;5.93;5.35;;;25.10;62.20;;;;;;10416182;28;20041;-58
2021/06/17 23:26:22;;;;;;;5.78;5.28;;;25.10;62.30;;;;;;10416039;28;20037;-58
2021/06/17 23:31:23;;;;;;;5.47;5.00;;;25.10;62.30;;;;;;10415642;28;20371;-57
2021/06/17 23:36:23;;;;;;;5.55;5.05;;;25.10;62.30;;;;;;10402724;28;20042;-57
2021/06/17 23:41:24;;;;;;;6.13;5.60;;;25.10;62.30;;;;;;10420361;28;20059;-58
2021/06/17 23:46:25;;;;;;;6.88;6.28;;;25.10;62.30;;;;;;10417250;28;20072;-58
2021/06/17 23:51:26;;;;;;;6.43;5.82;;;25.10;62.40;;;;;;10415025;28;20041;-58
2021/06/17 23:56:26;;;;;;;6.32;5.13;;;25.10;62.40;;;;;;10414145;28;20163;-58
